Time;durP1;ratioP1;P1;durP2;ratioP2;P2;SDS_P1;SDS_P2;PMS_P1;PMS_P2;Temp;Humidity;BMP_temperature;BMP_pressure;BME280_temperature;BME280_humidity;BME280_pressure;Samples;Min_cycle;Max_cycle;Signal;HPM_P1;HPM_P2
2023/10/10 00:00:55;;;;;;;5.65;3.45;;;;;;;24.09;57.24;99368.78;2078990;28;20129;-68
2023/10/10 00:02:04;;;;;;;4.63;3.83;;;;;;;24.12;57.47;99366.72;2078086;28;20049;-67
2023/10/10 00:03:06;;;;;;;5.07;3.10;;;;;;;24.13;57.09;99369.22;2079932;28;20087;-68
2023/10/10 00:04:10;;;;;;;6.57;4.18;;;;;;;24.11;57.07;99365.88;2078989;28;20450;-68
2023/10/10 00:05:12;;;;;;;7.15;4.22;;;;;;;24.09;57.24;99367.97;2079265;28;20045;-68
2023/10/10 00:06:13;;;;;;;4.50;4.00;;;;;;;24.08;57.47;99369.88;2080989;28;20045;-68
2023/10/10 00:07:15;;;;;;;4.40;3.45;;;;;;;24.07;57.50;99372.78;2075620;28;20046;-68
2023/10/10 00:08:20;;;;;;;4.32;3.05;;;;;;;24.07;57.21;99368.22;2079757;28;20041;-67
2023/10/10 00:09:26;;;;;;;5.97;3.78;;;;;;;24.12;57.29;99364.81;2078789;28;20068;-67
2023/10/10 00:10:27;;;;;;;4.63;3.20;;;;;;;24.14;57.23;99370.84;2077511;28;20049;-67
2023/10/10 00:11:31;;;;;;;4.55;3.10;;;;;;;24.12;57.26;99372.94;2080122;28;20064;-68
2023/10/10 00:12:35;;;;;;;6.20;3.70;;;;;;;24.11;57.49;99368.59;2078714;28;20090;-68
2023/10/10 00:13:42;;;;;;;6.63;3.53;;;;;;;24.11;57.09;99370.47;2079023;28;20060;-68
2023/10/10 00:14:44;;;;;;;6.25;3.50;;;;;;;24.12;57.15;99367.53;2077068;28;20134;-68
2023/10/10 00:15:50;;;;;;;6.15;3.85;;;;;;;24.09;57.14;99366.09;2076401;28;20049;-68
2023/10/10 00:16:54;;;;;;;5.05;3.40;;;;;;;24.08;57.43;99363.63;2079165;28;20049;-67
2023/10/10 00:18:00;;;;;;;6.47;3.40;;;;;;;24.10;57.43;99372.38;2081446;28;20052;-68
2023/10/10 00:19:11;;;;;;;8.32;3.53;;;;;;;24.09;57.30;99360.66;2076770;28;20072;-68
2023/10/10 00:20:16;;;;;;;;;;;;;;;23.95;57.66;99364.53;2080916;28;20132;-67
2023/10/10 00:21:23;;;;;;;4.70;3.42;;;;;;;24.00;57.26;99364.72;2078169;28;19999;-68
2023/10/10 00:22:33;;;;;;;8.18;2.97;;;;;;;24.05;57.25;99370.31;2077480;28;20653;-68
2023/10/10 00:23:42;;;;;;;6.72;3.15;;;;;;;24.06;57.33;99363.00;2080352;28;20127;-68
2023/10/10 00:24:42;;;;;;;4.55;3.35;;;;;;;24.07;57.23;99356.53;2078337;28;20052;-68
2023/10/10 00:25:45;;;;;;;7.13;3.63;;;;;;;24.00;57.88;99358.47;2076544;28;20415;-67
2023/10/10 00:26:47;;;;;;;4.38;3.53;;;;;;;23.95;58.06;99356.41;2079111;28;20068;-67
2023/10/10 00:27:55;;;;;;;4.80;4.00;;;;;;;23.99;57.61;99354.13;2075502;28;20512;-68
2023/10/10 00:28:57;;;;;;;6.57;3.55;;;;;;;24.03;57.44;99358.03;2077658;28;20033;-68
2023/10/10 00:30:02;;;;;;;7.28;3.78;;;;;;;24.05;57.49;99355.94;2081082;28;20139;-67
2023/10/10 00:31:05;;;;;;;4.80;3.80;;;;;;;24.02;57.46;99356.38;2080036;28;20132;-67
2023/10/10 00:32:13;;;;;;;5.82;3.72;;;;;;;24.05;57.26;99353.22;2081826;28;20049;-68
2023/10/10 00:33:16;;;;;;;5.03;3.83;;;;;;;24.02;57.07;99357.19;2082844;28;20412;-68
2023/10/10 00:34:20;;;;;;;5.72;4.07;;;;;;;24.04;57.30;99354.25;2079737;28;20051;-67
2023/10/10 00:35:23;;;;;;;4.38;3.28;;;;;;;24.06;57.15;99357.59;2077325;28;20431;-67
2023/10/10 00:36:31;;;;;;;6.45;3.47;;;;;;;24.03;57.59;99353.44;2078554;28;20054;-68
2023/10/10 00:37:34;;;;;;;5.95;3.47;;;;;;;23.94;58.02;99353.94;2077208;28;20049;-68
2023/10/10 00:38:36;;;;;;;5.63;4.30;;;;;;;23.88;57.82;99349.41;2082963;28;20060;-68
2023/10/10 00:39:38;;;;;;;7.32;4.25;;;;;;;23.90;57.79;99347.28;2076913;28;20133;-68
2023/10/10 00:40:39;;;;;;;4.95;3.63;;;;;;;23.90;58.01;99350.81;2076181;28;20052;-67
2023/10/10 00:41:44;;;;;;;6.25;3.45;;;;;;;23.90;58.09;99352.72;2076937;28;20056;-68
2023/10/10 00:42:48;;;;;;;5.03;3.50;;;;;;;23.91;57.86;99354.41;2077679;28;20140;-68
2023/10/10 00:43:50;;;;;;;5.75;4.40;;;;;;;23.92;57.64;99350.63;2075129;28;20052;-67
2023/10/10 00:44:53;;;;;;;6.10;3.60;;;;;;;23.95;57.51;99352.88;2078854;28;20098;-68
2023/10/10 00:45:57;;;;;;;4.60;3.33;;;;;;;23.98;57.25;99355.97;2078640;28;20198;-68
2023/10/10 00:47:03;;;;;;;5.43;3.63;;;;;;;23.99;57.62;99351.41;2083005;28;20041;-68
2023/10/10 00:48:04;;;;;;;5.32;3.80;;;;;;;23.99;57.63;99357.66;2082993;28;20532;-68
2023/10/10 00:49:09;;;;;;;5.30;3.67;;;;;;;24.00;57.55;99348.47;2078419;28;20698;-68
2023/10/10 00:50:16;;;;;;;4.10;3.13;;;;;;;23.98;57.41;99355.16;2080560;28;20466;-68
2023/10/10 00:51:21;;;;;;;4.82;3.40;;;;;;;23.96;57.13;99352.69;2078757;28;20037;-68
2023/10/10 00:52:22;;;;;;;4.30;3.70;;;;;;;23.94;57.73;99351.22;2080601;28;20068;-68
2023/10/10 00:53:25;;;;;;;6.05;3.67;;;;;;;23.95;57.58;99351.00;2079897;28;20048;-67
2023/10/10 00:54:30;;;;;;;4.55;3.40;;;;;;;23.93;57.45;99347.69;2073465;28;20056;-68
2023/10/10 00:55:34;;;;;;;6.60;3.78;;;;;;;23.89;57.90;99342.94;2078403;28;20512;-68
2023/10/10 00:56:35;;;;;;;4.20;3.80;;;;;;;23.88;57.71;99344.00;2078225;28;20119;-67
2023/10/10 00:57:37;;;;;;;7.18;3.85;;;;;;;23.89;57.58;99346.47;2072875;28;20393;-68
2023/10/10 00:58:39;;;;;;;5.82;3.42;;;;;;;23.85;57.81;99343.38;2080869;28;20052;-68
2023/10/10 00:59:43;;;;;;;7.18;4.20;;;;;;;23.85;57.66;99346.09;2078807;28;20531;-68
2023/10/10 01:00:46;;;;;;;5.28;4.18;;;;;;;23.81;58.39;99344.84;2080673;28;20064;-68
2023/10/10 01:01:49;;;;;;;5.72;4.25;;;;;;;23.75;58.23;99347.63;2075628;28;20083;-68
2023/10/10 01:02:51;;;;;;;4.72;3.67;;;;;;;23.72;58.20;99346.19;2077655;28;20056;-68
2023/10/10 01:03:53;;;;;;;5.82;4.43;;;;;;;23.73;58.21;99342.41;2075494;28;20393;-68
2023/10/10 01:05:04;;;;;;;7.45;4.45;;;;;;;23.69;58.55;99341.19;2072920;28;20152;-68
2023/10/10 01:06:07;;;;;;;6.50;4.28;;;;;;;23.68;58.47;99342.25;2081583;28;20053;-68
2023/10/10 01:07:10;;;;;;;4.32;3.38;;;;;;;23.71;58.25;99330.16;2078491;28;20055;-67
2023/10/10 01:08:17;;;;;;;6.82;4.07;;;;;;;23.73;58.44;99338.88;2081965;28;20049;-68
2023/10/10 01:09:32;;;;;;;6.20;4.13;;;;;;;23.69;58.54;99334.94;2077255;28;20048;-68
2023/10/10 01:10:42;;;;;;;8.30;5.00;;;;;;;23.69;58.37;99334.94;2079238;28;20135;-68
2023/10/10 01:11:43;;;;;;;7.13;4.68;;;;;;;23.64;58.48;99331.00;2076837;28;21418;-68
2023/10/10 01:12:46;;;;;;;6.00;3.92;;;;;;;23.67;58.60;99337.84;2081855;28;20495;-68
2023/10/10 01:13:47;;;;;;;5.72;3.85;;;;;;;23.74;58.11;99337.84;2073153;28;20056;-68
2023/10/10 01:14:54;;;;;;;5.90;3.63;;;;;;;23.77;58.09;99334.72;2077333;28;20052;-67
2023/10/10 01:15:57;;;;;;;4.65;3.50;;;;;;;23.81;57.65;99339.44;2077916;28;20037;-67
2023/10/10 01:16:58;;;;;;;5.75;4.35;;;;;;;23.70;58.27;99334.72;2077606;28;20547;-68
2023/10/10 01:18:00;;;;;;;8.65;4.88;;;;;;;23.59;58.75;99340.84;2077795;28;20065;-68
2023/10/10 01:19:02;;;;;;;9.45;3.92;;;;;;;23.50;58.94;99329.44;2076494;28;20045;-67
2023/10/10 01:20:17;;;;;;;7.30;4.30;;;;;;;23.52;58.94;99329.22;2076461;28;20049;-68
2023/10/10 01:21:30;;;;;;;6.30;4.00;;;;;;;23.56;58.61;99331.25;2079823;28;20057;-68
2023/10/10 01:22:46;;;;;;;7.22;3.63;;;;;;;23.62;58.19;99330.41;2083694;28;20061;-67
2023/10/10 01:23:47;;;;;;;5.03;3.47;;;;;;;23.68;58.06;99325.13;2076681;28;20053;-67
2023/10/10 01:24:52;;;;;;;5.03;3.67;;;;;;;23.72;58.19;99329.13;2079454;28;20056;-68
2023/10/10 01:25:55;;;;;;;5.80;3.65;;;;;;;23.74;57.82;99325.13;2079638;28;20615;-68
2023/10/10 01:27:03;;;;;;;5.95;3.92;;;;;;;23.74;58.02;99322.44;2075902;28;20084;-68
2023/10/10 01:28:13;;;;;;;5.78;3.53;;;;;;;23.73;57.84;99323.47;2075978;28;20034;-68
2023/10/10 01:29:21;;;;;;;6.30;4.18;;;;;;;23.70;58.39;99323.03;2074967;28;20061;-68
2023/10/10 01:30:43;;;;;;;6.50;4.03;;;;;;;23.64;58.42;99322.06;2074968;28;20060;-67
2023/10/10 01:31:45;;;;;;;7.25;3.72;;;;;;;23.62;58.46;99321.44;2075285;28;20077;-68
2023/10/10 01:32:50;;;;;;;6.93;3.63;;;;;;;23.66;58.15;99328.09;2076454;28;20045;-67
2023/10/10 01:33:52;;;;;;;4.85;3.65;;;;;;;23.68;58.14;99323.28;2076538;28;20474;-67
2023/10/10 01:34:54;;;;;;;8.52;4.20;;;;;;;23.66;58.18;99328.09;2076543;28;20102;-68
2023/10/10 01:35:55;;;;;;;5.53;4.07;;;;;;;23.64;58.33;99327.47;2078036;28;20156;-68
2023/10/10 01:37:07;;;;;;;6.75;3.83;;;;;;;23.61;58.42;99327.91;2079049;28;20048;-68
2023/10/10 01:38:21;;;;;;;9.02;3.95;;;;;;;23.57;58.48;99326.69;2076402;28;20796;-67
2023/10/10 01:39:35;;;;;;;7.68;4.35;;;;;;;23.55;58.41;99323.38;2076313;28;20064;-68
2023/10/10 01:40:37;;;;;;;5.78;4.05;;;;;;;23.54;58.74;99330.69;2076174;28;20053;-67
2023/10/10 01:41:38;;;;;;;8.32;4.45;;;;;;;23.52;58.70;99329.22;2078173;28;20049;-68
2023/10/10 01:42:45;;;;;;;4.28;3.50;;;;;;;23.55;58.41;99326.09;2079195;28;20063;-68
2023/10/10 01:43:46;;;;;;;5.97;4.15;;;;;;;23.59;58.15;99325.41;2077322;28;20057;-68
2023/10/10 01:44:48;;;;;;;7.22;3.90;;;;;;;23.61;58.19;99327.91;2076989;28;20127;-67
2023/10/10 01:46:08;;;;;;;13.52;5.20;;;;;;;23.61;58.22;99319.78;2078890;28;20468;-68
2023/10/10 01:47:18;;;;;;;9.77;3.50;;;;;;;23.56;58.38;99322.31;2075263;28;20076;-67
2023/10/10 01:48:23;;;;;;;8.00;3.80;;;;;;;23.56;58.42;99323.13;2077134;28;20076;-68
2023/10/10 01:49:29;;;;;;;6.53;3.75;;;;;;;23.59;58.24;99314.56;2081400;28;20107;-67
2023/10/10 01:50:30;;;;;;;4.28;3.15;;;;;;;23.62;57.82;99313.31;2078832;28;20076;-68
2023/10/10 01:51:33;;;;;;;5.57;3.38;;;;;;;23.64;57.97;99316.63;2072805;28;20133;-68
2023/10/10 01:52:37;;;;;;;7.28;4.15;;;;;;;23.67;57.92;99318.06;2076382;28;20084;-68
2023/10/10 01:53:40;;;;;;;5.18;3.58;;;;;;;23.71;57.79;99317.47;2079073;28;20064;-68
2023/10/10 01:54:45;;;;;;;6.28;3.88;;;;;;;23.69;57.88;99314.09;2074978;28;20128;-66
2023/10/10 01:55:50;;;;;;;6.43;4.05;;;;;;;23.70;57.66;99315.75;2075401;28;20106;-68
2023/10/10 01:56:51;;;;;;;5.45;3.50;;;;;;;23.74;57.64;99317.00;2072946;28;20148;-67
2023/10/10 01:57:57;;;;;;;8.07;3.90;;;;;;;23.76;57.56;99320.31;2077920;28;20055;-67
2023/10/10 01:59:03;;;;;;;5.30;3.03;;;;;;;23.76;57.63;99319.47;2074652;28;20179;-68
2023/10/10 02:00:19;;;;;;;4.03;3.33;;;;;;;23.78;57.57;99320.91;2078738;28;20152;-68
2023/10/10 02:01:23;;;;;;;5.75;2.90;;;;;;;23.78;57.56;99315.50;2074230;28;20091;-67
2023/10/10 02:02:27;;;;;;;7.20;3.10;;;;;;;23.78;57.57;99320.91;2078545;28;20438;-68
2023/10/10 02:03:27;;;;;;;4.40;3.70;;;;;;;23.77;57.19;99316.56;2077057;28;20053;-67
2023/10/10 02:04:35;;;;;;;5.72;3.60;;;;;;;23.77;57.65;99319.28;2076458;28;20397;-67
2023/10/10 02:05:45;;;;;;;4.93;3.42;;;;;;;23.76;57.38;99322.19;2073667;28;20511;-68
2023/10/10 02:06:47;;;;;;;5.95;3.38;;;;;;;23.73;57.46;99320.75;2075581;28;20128;-67
2023/10/10 02:07:53;;;;;;;6.38;4.15;;;;;;;23.77;57.48;99319.28;2078911;28;20048;-68
2023/10/10 02:08:56;;;;;;;7.22;4.47;;;;;;;23.78;57.51;99323.63;2075584;28;20745;-68
2023/10/10 02:10:11;;;;;;;6.80;4.10;;;;;;;23.73;57.87;99312.63;2079147;28;20095;-68
2023/10/10 02:11:12;;;;;;;5.95;3.40;;;;;;;23.75;57.67;99315.13;2079442;28;20449;-67
2023/10/10 02:12:16;;;;;;;4.45;3.17;;;;;;;23.77;57.54;99316.56;2075746;28;20049;-68
2023/10/10 02:13:18;;;;;;;6.93;4.10;;;;;;;23.79;57.71;99319.91;2074260;28;20148;-68
2023/10/10 02:14:24;;;;;;;6.25;3.38;;;;;;;23.77;57.60;99316.56;2080018;28;20155;-68
2023/10/10 02:15:26;;;;;;;5.32;4.18;;;;;;;23.76;57.46;99314.88;2076575;28;20057;-67
2023/10/10 02:16:35;;;;;;;5.47;3.80;;;;;;;23.76;57.46;99323.00;2078653;28;20054;-67
2023/10/10 02:17:39;;;;;;;5.47;4.03;;;;;;;23.74;57.47;99317.00;2077401;28;20061;-68
2023/10/10 02:18:44;;;;;;;4.97;4.22;;;;;;;23.73;57.71;99323.47;2080076;28;20053;-68
2023/10/10 02:19:53;;;;;;;4.07;3.63;;;;;;;23.77;57.48;99319.28;2084243;28;20152;-68
2023/10/10 02:21:05;;;;;;;5.70;4.00;;;;;;;23.76;57.25;99323.00;2085404;28;20087;-68
2023/10/10 02:22:19;;;;;;;6.80;3.92;;;;;;;23.78;57.47;99318.22;2074123;28;20080;-68
2023/10/10 02:23:31;;;;;;;5.57;3.60;;;;;;;23.76;57.62;99323.00;2077419;28;20056;-68
2023/10/10 02:24:41;;;;;;;8.00;4.72;;;;;;;23.68;57.93;99319.72;2075850;28;20515;-68
2023/10/10 02:25:46;;;;;;;6.93;4.07;;;;;;;23.63;57.85;99315.81;2075482;28;20464;-68
2023/10/10 02:26:51;;;;;;;7.10;4.57;;;;;;;23.64;57.96;99314.75;2078481;28;20700;-68
2023/10/10 02:27:55;;;;;;;6.35;4.40;;;;;;;23.67;57.61;99316.19;2081039;28;20071;-67
2023/10/10 02:30:22;;;;;;;5.82;4.15;;;;;;;23.69;57.76;99313.28;2073198;28;20045;-68
2023/10/10 02:31:28;;;;;;;5.40;4.13;;;;;;;23.67;57.85;99315.38;2078027;28;20053;-67
2023/10/10 02:32:30;;;;;;;8.27;3.80;;;;;;;23.72;57.53;99326.41;2078948;28;20111;-68
2023/10/10 02:33:31;;;;;;;4.57;3.53;;;;;;;23.74;57.44;99316.19;2081263;28;20119;-68
2023/10/10 02:34:34;;;;;;;4.40;3.13;;;;;;;23.76;57.46;99317.59;2081028;28;20060;-68
2023/10/10 02:35:47;;;;;;;7.15;4.13;;;;;;;23.76;57.37;99317.59;2078809;28;20092;-68
2023/10/10 02:37:05;;;;;;;5.75;3.80;;;;;;;23.76;57.29;99312.19;2077005;28;20045;-67
2023/10/10 02:38:07;;;;;;;5.47;3.83;;;;;;;23.78;57.51;99311.97;2078798;28;20053;-67
2023/10/10 02:39:27;;;;;;;5.03;3.75;;;;;;;23.79;57.22;99319.03;2077062;28;20494;-68
2023/10/10 02:40:31;;;;;;;4.53;3.67;;;;;;;23.79;57.47;99317.19;2079715;28;20601;-68
2023/10/10 02:41:38;;;;;;;6.78;3.63;;;;;;;23.81;57.44;99317.78;2076910;28;20136;-68
2023/10/10 02:42:40;;;;;;;6.25;3.88;;;;;;;23.82;57.39;99324.88;2078337;28;20064;-67
2023/10/10 02:43:55;;;;;;;4.13;3.42;;;;;;;23.82;57.32;99315.88;2076630;28;20052;-68
2023/10/10 02:44:58;;;;;;;6.80;4.03;;;;;;;23.79;57.07;99314.47;2079535;28;21088;-68
2023/10/10 02:45:59;;;;;;;6.22;4.18;;;;;;;23.77;57.34;99316.56;2078285;28;20098;-68
2023/10/10 02:47:00;;;;;;;5.80;3.58;;;;;;;23.78;57.25;99315.50;2074570;28;20049;-67
2023/10/10 02:48:07;;;;;;;6.18;4.10;;;;;;;23.76;57.31;99317.59;2077809;28;20041;-67
2023/10/10 02:49:12;;;;;;;7.22;4.22;;;;;;;23.76;57.26;99319.47;2078233;28;20634;-68
2023/10/10 02:50:29;;;;;;;6.13;4.10;;;;;;;23.74;57.36;99317.00;2079317;28;20137;-68
2023/10/10 02:51:36;;;;;;;4.93;3.90;;;;;;;23.73;57.41;99314.50;2075743;28;20844;-68
2023/10/10 02:52:39;;;;;;;5.25;3.72;;;;;;;23.77;57.49;99316.56;2073767;28;20064;-68
2023/10/10 02:53:46;;;;;;;6.30;4.20;;;;;;;23.79;57.10;99319.03;2073826;28;20076;-68
2023/10/10 02:54:53;;;;;;;5.35;3.80;;;;;;;23.78;57.11;99315.50;2078736;28;20061;-66
2023/10/10 02:56:01;;;;;;;6.28;4.22;;;;;;;23.74;57.23;99311.59;2075870;28;20094;-68
2023/10/10 02:58:27;;;;;;;6.05;4.43;;;;;;;23.69;57.57;99314.09;2073408;28;20049;-67
2023/10/10 02:59:31;;;;;;;6.72;5.15;;;;;;;23.69;57.57;99313.28;2074441;28;20064;-68
2023/10/10 03:00:34;;;;;;;6.13;3.90;;;;;;;23.72;57.57;99310.97;2074269;28;20064;-67
2023/10/10 03:01:50;;;;;;;7.40;4.05;;;;;;;23.76;57.27;99314.88;2071667;28;20478;-67
2023/10/10 03:02:54;;;;;;;5.40;3.92;;;;;;;23.76;57.40;99312.19;2081832;28;20469;-68
2023/10/10 03:03:55;;;;;;;5.57;3.35;;;;;;;23.78;57.38;99317.38;2077937;28;20069;-68
2023/10/10 03:05:06;;;;;;;5.93;4.18;;;;;;;23.80;57.22;99318.84;2078364;28;20045;-68
2023/10/10 03:06:10;;;;;;;4.60;3.53;;;;;;;23.81;57.07;99323.19;2081837;28;20404;-68
2023/10/10 03:07:19;;;;;;;4.50;3.50;;;;;;;23.82;56.97;99318.59;2077343;28;20041;-68
2023/10/10 03:08:34;;;;;;;5.00;3.83;;;;;;;23.81;56.83;99317.78;2079615;28;20507;-68
2023/10/10 03:09:38;;;;;;;6.00;4.25;;;;;;;23.81;56.74;99323.19;2081044;28;20680;-67
2023/10/10 03:10:45;;;;;;;7.25;4.53;;;;;;;23.82;57.17;99322.16;2080008;28;20109;-68
2023/10/10 03:12:03;;;;;;;6.00;4.00;;;;;;;23.83;56.72;99323.81;2075434;28;20068;-68
2023/10/10 03:13:12;;;;;;;4.85;3.42;;;;;;;23.82;56.89;99324.88;2081425;28;20052;-68
2023/10/10 03:14:25;;;;;;;4.15;3.75;;;;;;;23.82;56.74;99319.44;2079821;28;20038;-68
2023/10/10 03:15:30;;;;;;;4.93;3.72;;;;;;;23.82;56.92;99316.75;2074751;28;20064;-67
2023/10/10 03:16:59;;;;;;;3.75;3.08;;;;;;;23.82;56.69;99319.44;2069938;28;20088;-68
2023/10/10 03:19:28;;;;;;;8.52;5.45;;;;;;;23.71;57.47;99316.59;2075328;28;20467;-68
2023/10/10 03:20:47;;;;;;;5.68;4.60;;;;;;;23.65;57.35;99315.56;2077963;28;20064;-67
2023/10/10 03:21:51;;;;;;;9.45;5.05;;;;;;;23.63;57.70;99309.56;2076479;28;20048;-67
2023/10/10 03:23:09;;;;;;;6.90;4.78;;;;;;;23.62;57.83;99314.16;2077632;28;21600;-67
2023/10/10 03:24:30;;;;;;;5.40;4.07;;;;;;;23.59;57.80;99311.03;2084137;28;20810;-67
2023/10/10 03:25:38;;;;;;;5.93;4.80;;;;;;;23.57;58.13;99316.69;2073178;28;20049;-67
2023/10/10 03:27:00;;;;;;;5.50;3.78;;;;;;;23.63;57.64;99321.22;2073682;28;20057;-67
2023/10/10 03:28:18;;;;;;;4.68;3.30;;;;;;;23.65;57.11;99318.28;2075316;28;20119;-67
2023/10/10 03:29:37;;;;;;;4.50;4.05;;;;;;;23.67;57.35;99320.78;2078109;28;20769;-68
2023/10/10 03:30:50;;;;;;;4.97;3.47;;;;;;;23.72;57.19;99318.28;2079131;28;20057;-67
2023/10/10 03:32:19;;;;;;;5.53;3.97;;;;;;;23.73;57.42;99319.94;2072479;28;20128;-66
2023/10/10 03:33:35;;;;;;;7.07;4.00;;;;;;;23.74;57.16;99318.91;2080281;28;20053;-67
2023/10/10 03:34:44;;;;;;;4.93;3.38;;;;;;;23.75;57.38;99320.53;2076984;28;20175;-67
2023/10/10 03:37:21;;;;;;;4.70;3.75;;;;;;;23.74;57.16;99327.03;2060674;28;20079;-67
2023/10/10 03:39:43;;;;;;;5.78;3.83;;;;;;;23.75;57.01;99326.78;2077893;28;20049;-67
2023/10/10 03:41:24;;;;;;;5.72;3.70;;;;;;;23.77;57.25;99327.41;2081524;28;20123;-67
2023/10/10 05:24:12;;;;;;;8.00;4.95;;;;;;;23.56;57.06;99327.72;2075840;28;20042;-68
2023/10/10 05:25:13;;;;;;;4.68;4.22;;;;;;;23.60;57.09;99320.84;2076009;28;20077;-66
2023/10/10 05:26:18;;;;;;;12.00;5.43;;;;;;;23.58;57.05;99323.75;2083672;28;20043;-68
2023/10/10 05:27:29;;;;;;;7.35;4.72;;;;;;;23.57;57.21;99337.53;2077357;28;20554;-68
2023/10/10 05:28:32;;;;;;;10.90;5.13;;;;;;;23.52;57.36;99337.34;2079584;28;20512;-68
2023/10/10 05:29:33;;;;;;;9.52;7.05;;;;;;;23.51;57.49;99330.25;2075896;28;20053;-67
2023/10/10 05:30:42;;;;;;;8.43;5.15;;;;;;;23.53;57.12;99329.00;2078671;28;20155;-67
2023/10/10 05:31:44;;;;;;;9.02;5.47;;;;;;;23.53;57.18;99339.00;2081312;28;20049;-66
2023/10/10 05:33:00;;;;;;;9.40;5.78;;;;;;;23.53;57.17;99336.28;2074068;28;20049;-67
2023/10/10 05:34:02;;;;;;;8.18;5.32;;;;;;;23.48;57.45;99333.41;2076304;28;20045;-67
2023/10/10 05:35:11;;;;;;;10.63;5.93;;;;;;;23.49;57.44;99335.09;2074333;28;20136;-67
2023/10/10 05:36:13;;;;;;;7.32;5.65;;;;;;;23.50;57.19;99329.44;2076919;28;20111;-68
2023/10/10 05:37:15;;;;;;;8.60;5.88;;;;;;;23.53;57.31;99333.59;2079227;28;20043;-68
2023/10/10 05:38:16;;;;;;;7.85;4.70;;;;;;;23.58;57.13;99339.19;2083388;28;20129;-67
2023/10/10 05:39:17;;;;;;;8.38;5.53;;;;;;;23.53;57.19;99336.28;2076629;28;20057;-67
2023/10/10 05:40:20;;;;;;;10.88;6.07;;;;;;;23.51;57.05;99335.69;2074926;28;20171;-68
2023/10/10 05:41:22;;;;;;;8.90;6.32;;;;;;;23.56;57.35;99341.28;2080691;28;20082;-67
2023/10/10 05:42:26;;;;;;;10.00;5.85;;;;;;;23.56;57.14;99341.28;2077489;28;20498;-67
2023/10/10 05:43:33;;;;;;;10.27;6.18;;;;;;;23.57;56.94;99341.06;2082131;28;20052;-68
2023/10/10 05:44:38;;;;;;;10.43;6.55;;;;;;;23.55;57.00;99340.44;2078543;28;20099;-67
2023/10/10 05:45:39;;;;;;;6.68;5.80;;;;;;;23.54;57.06;99341.50;2076921;28;20085;-66
2023/10/10 05:46:41;;;;;;;7.70;5.80;;;;;;;23.54;57.23;99340.66;2075796;28;20058;-67
2023/10/10 05:47:42;;;;;;;8.70;5.85;;;;;;;23.50;57.36;99337.56;2079460;28;20041;-67
2023/10/10 05:48:46;;;;;;;7.85;5.25;;;;;;;23.48;57.60;99341.53;2076375;28;20056;-67
2023/10/10 05:49:48;;;;;;;7.20;5.25;;;;;;;23.45;57.64;99344.69;2079897;28;20885;-67
2023/10/10 05:50:49;;;;;;;10.48;5.22;;;;;;;23.47;57.39;99342.59;2076610;28;20056;-67
2023/10/10 05:51:51;;;;;;;11.23;6.65;;;;;;;23.49;57.38;99340.50;2078217;28;20140;-67
2023/10/10 05:52:53;;;;;;;9.38;6.07;;;;;;;23.48;57.37;99350.47;2082406;28;20519;-68
2023/10/10 05:53:55;;;;;;;8.38;5.90;;;;;;;23.48;57.59;99345.06;2079874;28;20494;-67
2023/10/10 05:54:56;;;;;;;7.70;5.22;;;;;;;23.46;57.34;99346.31;2079885;28;20049;-67
2023/10/10 05:55:58;;;;;;;7.20;5.07;;;;;;;23.43;57.51;99347.63;2082567;28;20076;-67
2023/10/10 05:57:00;;;;;;;11.05;5.65;;;;;;;23.38;57.70;99345.56;2078333;28;20053;-67
2023/10/10 05:58:02;;;;;;;8.23;5.97;;;;;;;23.37;57.88;99346.63;2079644;28;20040;-67
2023/10/10 05:59:04;;;;;;;8.70;5.30;;;;;;;23.37;57.75;99349.31;2080079;28;20110;-67
2023/10/10 06:00:10;;;;;;;7.88;5.13;;;;;;;23.37;57.89;99348.47;2078917;28;20049;-67
2023/10/10 06:01:13;;;;;;;8.30;4.97;;;;;;;23.38;57.60;99350.97;2080037;28;20083;-67
2023/10/10 06:02:16;;;;;;;8.50;5.72;;;;;;;23.35;58.04;99347.88;2081767;28;20049;-67
2023/10/10 06:03:17;;;;;;;8.48;5.82;;;;;;;23.36;57.67;99346.81;2081059;28;20086;-67
2023/10/10 06:04:21;;;;;;;6.07;5.10;;;;;;;23.39;57.66;99352.63;2078111;28;20092;-67
2023/10/10 06:05:22;;;;;;;8.63;6.00;;;;;;;23.42;57.78;99346.75;2081189;28;20056;-67
2023/10/10 06:06:27;;;;;;;11.45;6.10;;;;;;;23.43;57.65;99353.03;2080722;28;20453;-67
2023/10/10 06:07:28;;;;;;;8.40;6.15;;;;;;;23.37;57.42;99343.91;2081717;28;20065;-67
2023/10/10 06:08:31;;;;;;;8.40;6.22;;;;;;;23.38;57.47;99352.84;2082657;28;20147;-67
2023/10/10 06:09:34;;;;;;;8.63;5.25;;;;;;;23.40;57.57;99354.31;2080973;28;20049;-68
2023/10/10 06:10:35;;;;;;;7.28;4.97;;;;;;;23.43;57.70;99355.75;2080384;28;20057;-67
2023/10/10 06:11:36;;;;;;;7.88;5.72;;;;;;;23.44;57.22;99356.56;2075956;28;20061;-69
2023/10/10 06:12:40;;;;;;;7.63;5.38;;;;;;;23.46;57.52;99352.59;2079760;28;20060;-68
2023/10/10 06:13:43;;;;;;;7.32;5.32;;;;;;;23.45;57.58;99356.34;2079717;28;20127;-68
2023/10/10 06:14:46;;;;;;;8.50;6.03;;;;;;;23.41;57.40;99355.13;2080300;28;20056;-68
2023/10/10 06:15:50;;;;;;;8.43;5.13;;;;;;;23.40;57.37;99357.00;2079406;28;20443;-67
2023/10/10 06:16:52;;;;;;;9.10;5.13;;;;;;;23.44;57.30;99361.97;2080591;28;20474;-66
2023/10/10 06:17:57;;;;;;;8.38;5.82;;;;;;;23.46;57.09;99354.44;2080263;28;20535;-66
2023/10/10 06:19:00;;;;;;;7.80;5.38;;;;;;;23.46;57.08;99358.00;2076020;28;20045;-66
2023/10/10 06:20:06;;;;;;;6.50;4.95;;;;;;;23.46;57.21;99363.44;2080374;28;20492;-67
2023/10/10 06:21:07;;;;;;;8.27;5.05;;;;;;;23.43;57.02;99361.16;2081873;28;20519;-67
2023/10/10 06:22:09;;;;;;;7.57;5.10;;;;;;;23.46;57.22;99357.16;2079984;28;20041;-67
2023/10/10 06:23:14;;;;;;;8.57;5.30;;;;;;;23.45;57.07;99359.03;2084342;28;20095;-67
2023/10/10 06:24:16;;;;;;;6.18;4.80;;;;;;;23.46;56.89;99368.00;2078047;28;20637;-67
2023/10/10 06:25:18;;;;;;;9.48;5.47;;;;;;;23.45;56.89;99364.47;2077277;28;20056;-68
2023/10/10 06:26:21;;;;;;;8.50;5.85;;;;;;;23.47;56.81;99366.97;2082070;28;20053;-68
2023/10/10 06:27:24;;;;;;;8.43;5.75;;;;;;;23.50;56.81;99369.22;2075857;28;20045;-68
2023/10/10 06:28:26;;;;;;;5.38;4.75;;;;;;;23.53;56.84;99369.63;2082379;28;20049;-68
2023/10/10 06:29:29;;;;;;;11.43;6.15;;;;;;;23.55;57.02;99370.22;2079667;28;20060;-68
2023/10/10 06:30:29;;;;;;;6.82;4.30;;;;;;;23.56;56.89;99371.06;2082752;28;20597;-69
2023/10/10 06:31:34;;;;;;;6.28;4.55;;;;;;;23.58;56.79;99369.78;2076553;28;20095;-68
2023/10/10 06:32:35;;;;;;;11.63;4.57;;;;;;;23.61;56.66;99372.06;2069654;28;20053;-68
2023/10/10 06:33:40;;;;;;;8.55;4.30;;;;;;;23.61;56.46;99377.47;2076226;28;20511;-68
2023/10/10 06:34:49;;;;;;;6.20;4.40;;;;;;;23.62;56.58;99372.88;2077164;28;20145;-68
2023/10/10 06:35:52;;;;;;;5.47;4.63;;;;;;;23.63;56.87;99374.56;2079650;28;20068;-68
2023/10/10 06:36:54;;;;;;;9.68;4.90;;;;;;;23.63;56.53;99369.16;2081812;28;20099;-68
2023/10/10 06:37:58;;;;;;;8.43;5.15;;;;;;;23.65;56.65;99369.75;2078209;28;20049;-67
2023/10/10 06:40:24;;;;;;;13.48;5.10;;;;;;;23.64;56.53;99360.78;2075783;28;20152;-67
2023/10/10 06:41:27;;;;;;;8.68;4.75;;;;;;;23.66;56.62;99366.00;2079903;28;20053;-68
2023/10/10 06:42:28;;;;;;;10.90;5.97;;;;;;;23.67;56.71;99362.22;2071540;28;20060;-68
2023/10/10 06:43:33;;;;;;;9.18;5.38;;;;;;;23.68;56.35;99360.34;2073403;28;20128;-67
2023/10/10 06:44:35;;;;;;;10.23;5.00;;;;;;;23.71;56.41;99362.66;2077578;28;20124;-68
2023/10/10 06:45:39;;;;;;;9.32;5.07;;;;;;;23.71;56.52;99368.91;2075346;28;20064;-68
2023/10/10 06:46:40;;;;;;;5.43;4.43;;;;;;;23.71;56.20;99366.22;2078846;28;20529;-67
2023/10/10 06:47:44;;;;;;;10.50;4.80;;;;;;;23.73;56.36;99368.69;2079670;28;20056;-67
2023/10/10 06:48:47;;;;;;;7.15;4.72;;;;;;;23.72;56.22;99365.16;2078170;28;20101;-68
2023/10/10 06:49:55;;;;;;;7.60;5.10;;;;;;;23.73;56.29;99369.50;2073879;28;20059;-67
2023/10/10 06:50:57;;;;;;;6.63;5.18;;;;;;;23.74;56.40;99378.47;2077798;28;20180;-68
2023/10/10 06:51:59;;;;;;;10.38;4.63;;;;;;;23.74;56.11;99371.19;2069357;28;21724;-67
2023/10/10 06:53:01;;;;;;;7.03;4.93;;;;;;;23.75;56.12;99377.44;2068571;28;20040;-67
2023/10/10 06:54:03;;;;;;;7.90;5.22;;;;;;;23.73;56.21;99369.50;2073197;28;20100;-67
2023/10/10 06:55:10;;;;;;;8.40;5.50;;;;;;;23.74;56.44;99370.34;2073833;28;20056;-68
2023/10/10 06:56:18;;;;;;;9.75;4.68;;;;;;;23.76;56.01;99376.38;2080374;28;21774;-67
2023/10/10 06:57:21;;;;;;;7.93;4.85;;;;;;;23.74;55.96;99376.59;2076484;28;20545;-68
2023/10/10 06:58:23;;;;;;;12.00;5.63;;;;;;;23.75;55.86;99377.44;2078101;28;20049;-68
2023/10/10 06:59:27;;;;;;;10.30;5.75;;;;;;;23.75;56.38;99375.53;2074030;28;20508;-68